Time;durP1;ratioP1;P1;durP2;ratioP2;P2;SDS_P1;SDS_P2;PMS_P1;PMS_P2;Temp;Humidity;BMP_temperature;BMP_pressure;BME280_temperature;BME280_humidity;BME280_pressure;Samples;Min_cycle;Max_cycle;Signal;HPM_P1;HPM_P2
2022/11/05 00:09:32;;;;;;;1.60;1.40;;;9.50;99.90;;;;;;5091322;28;20468;-69
2022/11/05 00:17:32;;;;;;;5.60;2.00;;;9.40;99.90;;;;;;5091297;28;20441;-70
2022/11/05 00:19:59;;;;;;;3.10;2.50;;;9.60;99.90;;;;;;5091122;28;20445;-70
2022/11/05 00:25:15;;;;;;;1.83;1.43;;;9.40;99.90;;;;;;5075439;28;20976;-69
2022/11/05 00:27:44;;;;;;;5.90;1.60;;;9.60;99.90;;;;;;5090802;28;20525;-69
2022/11/05 00:30:13;;;;;;;2.03;1.63;;;9.50;99.90;;;;;;5090595;28;20474;-69
2022/11/05 00:32:40;;;;;;;5.13;2.00;;;9.60;99.90;;;;;;5090820;28;20439;-70
2022/11/05 00:35:08;;;;;;;3.50;2.20;;;9.70;99.90;;;;;;5090065;28;20450;-69
2022/11/05 00:37:35;;;;;;;2.00;1.27;;;9.70;99.90;;;;;;5089150;28;20445;-69
2022/11/05 00:40:02;;;;;;;3.03;1.83;;;9.70;99.90;;;;;;5090568;28;20459;-69
2022/11/05 00:45:15;;;;;;;1.70;1.40;;;9.50;99.90;;;;;;5088643;28;20920;-69
2022/11/05 00:50:26;;;;;;;1.80;1.47;;;9.60;99.90;;;;;;5090313;28;20472;-69
2022/11/05 00:52:58;;;;;;;2.07;1.33;;;9.60;99.90;;;;;;5090571;28;20442;-69
2022/11/05 00:55:32;;;;;;;2.10;1.53;;;9.60;99.90;;;;;;5090094;28;20467;-69
2022/11/05 00:57:59;;;;;;;1.67;1.40;;;9.60;99.90;;;;;;5090818;28;20448;-69
2022/11/05 01:00:29;;;;;;;1.97;1.40;;;9.50;99.90;;;;;;5089654;28;20456;-69
2022/11/05 01:03:01;;;;;;;1.83;1.33;;;9.50;99.90;;;;;;5090314;28;20446;-69
2022/11/05 01:05:29;;;;;;;2.00;1.43;;;9.60;99.90;;;;;;5074632;28;20434;-70
2022/11/05 01:07:56;;;;;;;2.70;1.70;;;9.60;99.90;;;;;;5090692;28;20457;-69
2022/11/05 01:10:24;;;;;;;1.67;1.10;;;9.60;99.90;;;;;;5089978;28;21070;-70
2022/11/05 01:12:51;;;;;;;1.90;1.63;;;9.60;99.90;;;;;;5090301;28;20435;-69
2022/11/05 01:15:18;;;;;;;2.23;1.43;;;9.70;99.90;;;;;;5089774;28;20776;-69
2022/11/05 01:17:47;;;;;;;2.13;1.20;;;9.70;99.90;;;;;;5089273;28;20457;-69
2022/11/05 01:20:15;;;;;;;1.37;0.83;;;9.70;99.90;;;;;;5089798;28;20449;-69
2022/11/05 01:22:42;;;;;;;2.23;2.03;;;9.50;99.90;;;;;;5090389;28;20439;-69
2022/11/05 01:25:09;;;;;;;3.93;1.67;;;9.50;99.90;;;;;;5089590;28;20457;-69
2022/11/05 01:27:37;;;;;;;1.87;1.70;;;9.50;99.90;;;;;;5090332;28;20453;-69
2022/11/05 01:30:05;;;;;;;1.87;1.60;;;9.60;99.90;;;;;;5088576;28;20824;-69
2022/11/05 01:32:33;;;;;;;2.47;1.47;;;9.60;99.90;;;;;;5090296;28;20438;-70
2022/11/05 01:35:02;;;;;;;2.57;1.70;;;9.50;99.90;;;;;;5079474;28;20444;-69
2022/11/05 01:37:28;;;;;;;3.40;1.90;;;9.50;99.90;;;;;;5093519;28;20951;-70
2022/11/05 01:39:55;;;;;;;4.30;1.60;;;9.60;99.90;;;;;;5094259;28;20473;-70
2022/11/05 01:42:25;;;;;;;3.93;1.43;;;9.70;99.90;;;;;;5093678;28;21009;-69
2022/11/05 01:44:58;;;;;;;2.73;1.70;;;9.60;99.90;;;;;;5093381;28;20460;-69
2022/11/05 01:47:38;;;;;;;4.50;1.70;;;9.70;99.90;;;;;;5093486;28;20439;-69
2022/11/05 01:50:27;;;;;;;1.73;1.33;;;9.60;99.90;;;;;;5092571;28;20472;-69
2022/11/05 01:53:04;;;;;;;2.93;1.60;;;9.60;99.90;;;;;;5093846;28;20619;-69
2022/11/05 01:55:36;;;;;;;1.97;1.47;;;9.50;99.90;;;;;;5094209;28;20432;-69
2022/11/05 01:58:05;;;;;;;4.47;1.40;;;9.60;99.90;;;;;;5093512;28;20777;-68
2022/11/05 02:00:32;;;;;;;3.43;1.80;;;9.60;99.90;;;;;;5094040;28;20449;-70
2022/11/05 02:02:59;;;;;;;5.40;1.70;;;9.70;99.90;;;;;;5093539;28;20440;-69
2022/11/05 02:05:28;;;;;;;1.70;1.27;;;9.80;99.90;;;;;;5093173;28;20453;-69
2022/11/05 02:07:55;;;;;;;2.63;1.30;;;9.80;99.90;;;;;;5093731;28;20433;-69
2022/11/05 02:10:23;;;;;;;1.67;1.30;;;9.70;99.90;;;;;;5093312;28;20788;-69
2022/11/05 02:12:50;;;;;;;0.97;0.83;;;9.80;99.90;;;;;;5093760;28;20491;-69
2022/11/05 02:15:26;;;;;;;1.50;1.00;;;9.70;99.90;;;;;;5092866;28;20516;-69
2022/11/05 02:18:04;;;;;;;1.30;1.20;;;9.70;99.90;;;;;;5093919;28;20503;-69
2022/11/05 02:20:43;;;;;;;1.87;1.00;;;9.70;99.90;;;;;;5093730;28;20521;-70
2022/11/05 02:23:51;;;;;;;5.53;1.47;;;9.60;99.90;;;;;;5093044;28;20479;-69
2022/11/05 02:26:51;;;;;;;1.80;1.30;;;9.70;99.90;;;;;;5093831;28;20447;-70
2022/11/05 02:29:46;;;;;;;2.33;1.30;;;9.70;99.90;;;;;;5101203;28;20481;-69
2022/11/05 02:32:19;;;;;;;1.00;0.80;;;9.60;99.90;;;;;;5102529;28;20491;-70
2022/11/05 02:34:55;;;;;;;1.33;0.87;;;9.60;99.90;;;;;;5102955;28;20444;-69
2022/11/05 02:37:37;;;;;;;1.20;1.10;;;9.60;99.90;;;;;;5102191;28;20512;-69
2022/11/05 02:40:13;;;;;;;3.47;2.03;;;9.70;99.90;;;;;;5091483;28;20452;-69
2022/11/05 02:42:45;;;;;;;1.60;0.70;;;9.70;99.90;;;;;;5108437;28;20521;-69
2022/11/05 02:45:24;;;;;;;1.37;0.90;;;9.70;99.90;;;;;;5106613;28;20465;-70
2022/11/05 02:47:58;;;;;;;1.30;0.87;;;9.80;99.90;;;;;;5106478;28;20475;-70
2022/11/05 02:50:33;;;;;;;1.00;0.80;;;9.80;99.90;;;;;;5102295;28;20481;-71
2022/11/05 02:53:04;;;;;;;0.97;0.70;;;9.70;99.90;;;;;;5098562;28;20534;-70
2022/11/05 02:55:36;;;;;;;2.30;1.30;;;9.80;99.90;;;;;;5099112;28;20438;-70
2022/11/05 02:58:04;;;;;;;1.83;1.10;;;9.90;99.90;;;;;;5097292;28;20444;-69
2022/11/05 03:00:46;;;;;;;1.60;1.07;;;9.80;99.90;;;;;;5096694;28;20460;-71
2022/11/05 03:03:25;;;;;;;1.50;0.70;;;9.80;99.90;;;;;;5088356;28;20448;-69
2022/11/05 03:06:21;;;;;;;1.53;1.10;;;9.70;99.90;;;;;;5082779;28;20790;-69
2022/11/05 03:09:09;;;;;;;1.83;0.90;;;9.60;99.90;;;;;;5095382;28;20550;-69
2022/11/05 03:11:41;;;;;;;1.40;0.93;;;9.80;99.90;;;;;;5093444;28;20452;-70
2022/11/05 03:14:18;;;;;;;1.80;1.27;;;9.80;99.90;;;;;;5093042;28;20443;-70
2022/11/05 03:16:50;;;;;;;1.63;1.17;;;9.70;99.90;;;;;;5092906;28;20453;-69
2022/11/05 03:19:27;;;;;;;1.50;1.10;;;9.70;99.90;;;;;;5093294;28;20493;-69
2022/11/05 03:21:59;;;;;;;1.93;1.03;;;9.80;99.90;;;;;;5093382;28;20443;-70
2022/11/05 03:24:31;;;;;;;1.60;1.20;;;9.70;99.90;;;;;;5091748;28;20444;-69
2022/11/05 03:27:03;;;;;;;1.47;1.00;;;9.80;99.90;;;;;;5092414;28;20450;-69
2022/11/05 03:29:39;;;;;;;1.33;0.80;;;9.90;99.90;;;;;;5092061;28;20997;-69
2022/11/05 03:32:08;;;;;;;1.20;0.70;;;9.90;99.90;;;;;;5091528;28;20439;-69
2022/11/05 03:34:39;;;;;;;1.27;0.70;;;10.00;99.90;;;;;;5091178;28;20471;-69
2022/11/05 03:37:08;;;;;;;1.60;0.90;;;9.80;99.90;;;;;;5091163;28;20435;-69
2022/11/05 03:39:38;;;;;;;1.00;0.73;;;9.70;99.90;;;;;;5092057;28;20437;-70
2022/11/05 03:42:08;;;;;;;1.40;0.80;;;9.70;99.90;;;;;;5090870;28;20443;-69
2022/11/05 03:44:42;;;;;;;1.73;0.90;;;9.80;99.90;;;;;;5091287;28;20454;-70
2022/11/05 03:47:13;;;;;;;1.10;0.90;;;9.80;99.90;;;;;;5090987;28;20449;-69
2022/11/05 03:49:48;;;;;;;1.87;1.53;;;9.80;99.90;;;;;;5091368;28;20503;-69
2022/11/05 03:52:18;;;;;;;1.20;0.80;;;9.70;99.90;;;;;;5089793;28;20789;-68
2022/11/05 03:54:45;;;;;;;1.00;0.70;;;9.60;99.90;;;;;;5091333;28;20444;-68
2022/11/05 03:57:18;;;;;;;1.30;1.00;;;9.50;99.90;;;;;;5090451;28;20437;-68
2022/11/05 03:59:48;;;;;;;1.70;1.10;;;9.50;99.90;;;;;;5091647;28;20441;-69
2022/11/05 04:02:18;;;;;;;1.13;0.70;;;9.60;99.90;;;;;;5090938;28;20432;-69
2022/11/05 04:04:47;;;;;;;1.40;1.13;;;9.50;99.90;;;;;;5090943;28;20441;-68
2022/11/05 04:15:28;;;;;;;1.07;0.93;;;9.40;99.90;;;;;;5078250;28;20456;-69
2022/11/05 04:17:57;;;;;;;0.90;0.63;;;9.40;99.90;;;;;;5091087;28;20459;-68
2022/11/05 04:25:54;;;;;;;1.07;0.97;;;9.50;99.90;;;;;;5090424;28;20436;-69
2022/11/05 04:30:17;;;;;;;0.90;0.67;;;9.50;99.90;;;;;;5088322;28;20442;-80
2022/11/05 04:31:07;;;;;;;1.27;0.93;;;9.40;99.90;;;;;;5089128;28;20979;-68
2022/11/05 04:33:34;;;;;;;1.47;1.00;;;9.30;99.90;;;;;;5090244;28;20439;-67
2022/11/05 04:36:02;;;;;;;2.13;1.00;;;9.40;99.90;;;;;;5090558;28;20242;-67
2022/11/05 04:38:29;;;;;;;1.50;1.13;;;9.40;99.90;;;;;;5090805;28;20516;-68
2022/11/05 04:41:12;;;;;;;1.40;0.80;;;9.30;99.90;;;;;;5090398;28;20452;-68
2022/11/05 04:43:39;;;;;;;1.80;1.43;;;9.40;99.90;;;;;;5083575;28;20931;-68
2022/11/05 04:46:06;;;;;;;1.83;1.40;;;9.20;99.90;;;;;;5090069;28;20447;-69
2022/11/05 04:48:33;;;;;;;1.43;1.10;;;9.20;99.90;;;;;;5084678;28;20473;-67
2022/11/05 04:51:00;;;;;;;1.00;0.70;;;9.20;99.90;;;;;;5090723;28;20477;-68
2022/11/05 04:53:28;;;;;;;3.67;1.00;;;9.20;99.90;;;;;;5089542;28;20447;-68
2022/11/05 04:55:55;;;;;;;1.23;0.90;;;9.20;99.90;;;;;;5090327;28;20444;-68
2022/11/05 04:58:22;;;;;;;1.70;1.10;;;9.30;99.90;;;;;;5089359;28;20799;-68
2022/11/05 05:00:49;;;;;;;2.27;0.93;;;9.30;99.90;;;;;;5089923;28;20464;-68
2022/11/05 05:03:16;;;;;;;1.00;0.70;;;9.40;99.90;;;;;;5090227;28;20441;-68
2022/11/05 05:05:43;;;;;;;1.60;0.97;;;9.50;99.90;;;;;;5090007;28;20920;-68
2022/11/05 05:08:10;;;;;;;1.13;0.90;;;9.40;99.90;;;;;;5090102;28;20441;-68
2022/11/05 05:10:38;;;;;;;1.00;0.70;;;9.40;99.90;;;;;;5093265;28;20516;-68
2022/11/05 05:13:05;;;;;;;2.00;0.93;;;9.30;99.90;;;;;;5093507;28;20448;-67
2022/11/05 05:15:31;;;;;;;1.87;1.50;;;9.30;99.90;;;;;;5094588;28;20448;-68
2022/11/05 05:17:59;;;;;;;1.07;0.70;;;9.30;99.90;;;;;;5093826;28;20463;-68
2022/11/05 05:23:10;;;;;;;1.67;0.80;;;9.40;99.90;;;;;;5093584;28;20443;-67
2022/11/05 05:25:38;;;;;;;1.07;0.70;;;9.40;99.90;;;;;;5090760;28;20456;-68
2022/11/05 05:28:05;;;;;;;1.67;0.77;;;9.50;99.90;;;;;;5093502;28;20784;-67
2022/11/05 05:30:32;;;;;;;1.17;0.70;;;9.60;99.90;;;;;;5093943;28;20480;-68
2022/11/05 05:33:02;;;;;;;1.13;0.90;;;9.50;99.90;;;;;;5093750;28;20457;-67
2022/11/05 05:35:29;;;;;;;2.63;1.40;;;9.50;99.90;;;;;;5094045;28;20452;-67
2022/11/05 05:37:56;;;;;;;3.83;1.30;;;9.30;99.90;;;;;;5091350;28;20454;-68
2022/11/05 05:40:23;;;;;;;1.83;1.37;;;9.50;99.90;;;;;;5093238;28;20464;-68
2022/11/05 05:42:55;;;;;;;2.07;1.20;;;9.50;99.90;;;;;;5093601;28;20449;-68
2022/11/05 05:45:21;;;;;;;1.30;0.93;;;9.50;99.90;;;;;;5093170;28;20460;-68
2022/11/05 05:47:48;;;;;;;2.20;1.30;;;9.60;99.90;;;;;;5092896;28;20484;-67
2022/11/05 05:50:15;;;;;;;1.93;1.40;;;9.50;99.90;;;;;;5092824;28;20481;-67
2022/11/05 05:52:42;;;;;;;2.80;1.60;;;9.60;99.90;;;;;;5093732;28;20456;-67
2022/11/05 05:55:11;;;;;;;3.80;2.27;;;9.70;99.90;;;;;;5093101;28;20457;-67
2022/11/05 05:57:38;;;;;;;4.17;1.77;;;9.80;99.90;;;;;;5093063;28;20478;-67
2022/11/05 06:00:07;;;;;;;1.80;1.37;;;9.60;99.90;;;;;;5093061;28;20818;-68
2022/11/05 06:02:34;;;;;;;2.13;1.90;;;9.60;99.90;;;;;;5103314;28;20450;-67
2022/11/05 06:05:01;;;;;;;1.50;1.17;;;9.50;99.90;;;;;;5096272;28;20950;-67
2022/11/05 06:07:28;;;;;;;2.13;1.80;;;9.50;99.90;;;;;;5093111;28;20450;-68
2022/11/05 06:09:54;;;;;;;3.43;1.50;;;9.40;99.90;;;;;;5093027;28;20476;-68
2022/11/05 06:12:21;;;;;;;2.97;1.77;;;9.40;99.90;;;;;;5092940;28;20456;-68
2022/11/05 06:14:48;;;;;;;2.60;1.67;;;9.30;99.90;;;;;;5092972;28;20442;-67
2022/11/05 06:17:16;;;;;;;2.80;2.10;;;9.40;99.90;;;;;;5092088;28;20445;-67
2022/11/05 06:19:43;;;;;;;4.53;3.67;;;9.40;99.90;;;;;;5091749;28;21005;-67
2022/11/05 06:22:10;;;;;;;5.80;3.60;;;9.40;99.90;;;;;;5092314;28;20811;-67
2022/11/05 06:24:37;;;;;;;6.63;4.87;;;9.40;99.90;;;;;;5092742;28;20531;-67
2022/11/05 06:27:04;;;;;;;10.80;5.10;;;9.50;99.90;;;;;;5091853;28;20452;-67
2022/11/05 06:29:31;;;;;;;6.50;3.50;;;9.40;99.90;;;;;;5093112;28;20441;-67
2022/11/05 06:31:58;;;;;;;8.07;4.20;;;9.40;99.90;;;;;;5092888;28;20506;-68
2022/11/05 06:34:26;;;;;;;8.47;5.40;;;9.40;99.90;;;;;;5092131;28;20457;-67
2022/11/05 06:36:53;;;;;;;6.33;4.87;;;9.50;99.90;;;;;;5092863;28;20451;-67
2022/11/05 06:39:20;;;;;;;8.30;5.27;;;9.60;99.90;;;;;;5091840;28;20469;-67
2022/11/05 06:41:47;;;;;;;9.70;5.47;;;9.50;99.90;;;;;;5092756;28;20453;-67
2022/11/05 06:44:13;;;;;;;9.50;5.17;;;9.60;99.90;;;;;;5092192;28;20528;-67
2022/11/05 06:46:40;;;;;;;8.10;5.80;;;9.50;99.90;;;;;;5092435;28;20476;-67
2022/11/05 06:49:07;;;;;;;10.63;6.43;;;9.70;99.90;;;;;;5091364;28;20477;-67
2022/11/05 06:51:35;;;;;;;10.53;6.37;;;9.70;99.90;;;;;;5092711;28;20477;-68
2022/11/05 06:54:02;;;;;;;10.90;6.43;;;9.50;99.90;;;;;;5091797;28;20457;-67
2022/11/05 06:56:29;;;;;;;13.37;7.13;;;9.60;99.90;;;;;;5092572;28;20986;-67
2022/11/05 06:58:56;;;;;;;11.10;6.30;;;9.80;99.90;;;;;;5084019;28;20452;-68
2022/11/05 07:01:23;;;;;;;8.57;5.00;;;9.70;99.90;;;;;;5091542;28;20450;-67
2022/11/05 07:03:50;;;;;;;9.40;6.53;;;9.90;99.90;;;;;;5087899;28;20451;-68
2022/11/05 07:06:17;;;;;;;10.10;6.23;;;9.80;99.90;;;;;;5091640;28;20445;-67
2022/11/05 07:08:45;;;;;;;8.23;5.30;;;9.90;99.90;;;;;;5091320;28;20476;-67
2022/11/05 07:11:12;;;;;;;12.57;6.60;;;9.90;99.90;;;;;;5091448;28;20475;-67
2022/11/05 07:13:38;;;;;;;11.73;7.00;;;10.00;99.90;;;;;;5092265;28;20907;-68
2022/11/05 07:16:06;;;;;;;10.13;6.90;;;10.00;99.90;;;;;;5091326;28;21026;-68
2022/11/05 07:18:32;;;;;;;10.20;7.40;;;10.00;99.90;;;;;;5091684;28;20469;-67
2022/11/05 07:21:00;;;;;;;11.93;6.43;;;10.00;99.90;;;;;;5092037;28;20836;-67
2022/11/05 07:23:27;;;;;;;9.07;5.20;;;9.80;99.90;;;;;;5091178;28;20853;-67
2022/11/05 07:25:55;;;;;;;11.00;6.77;;;10.00;99.90;;;;;;5091730;28;21020;-67
2022/11/05 07:28:21;;;;;;;13.13;7.83;;;9.90;99.90;;;;;;5090674;28;20449;-67
2022/11/05 07:30:48;;;;;;;10.60;7.37;;;10.10;99.90;;;;;;5091208;28;20483;-67
2022/11/05 07:33:15;;;;;;;13.57;7.60;;;10.00;99.90;;;;;;5090645;28;20949;-67
2022/11/05 07:35:42;;;;;;;7.13;5.33;;;10.10;99.90;;;;;;5091359;28;20445;-67
2022/11/05 07:38:09;;;;;;;11.70;7.00;;;10.30;99.90;;;;;;5090770;28;20466;-67
2022/11/05 07:40:36;;;;;;;9.83;6.23;;;10.50;99.90;;;;;;5091145;28;20460;-68
2022/11/05 07:43:04;;;;;;;9.73;6.20;;;10.10;99.90;;;;;;5090847;28;20450;-67
2022/11/05 07:45:31;;;;;;;12.70;7.83;;;10.20;99.90;;;;;;5091572;28;20454;-68
2022/11/05 07:48:00;;;;;;;10.00;7.07;;;10.00;99.90;;;;;;5090890;28;20831;-67
2022/11/05 07:50:28;;;;;;;11.97;6.87;;;10.00;99.90;;;;;;5090882;28;20547;-67
2022/11/05 07:53:00;;;;;;;9.63;6.90;;;9.90;99.90;;;;;;5091508;28;20542;-68
2022/11/05 07:55:27;;;;;;;8.63;5.63;;;9.90;99.90;;;;;;5091364;28;20440;-69
2022/11/05 07:57:54;;;;;;;11.97;6.33;;;9.90;99.90;;;;;;5091064;28;20450;-68
2022/11/05 08:00:23;;;;;;;17.13;6.57;;;10.10;99.90;;;;;;5090988;28;21194;-70
2022/11/05 08:02:58;;;;;;;7.67;5.87;;;10.00;99.90;;;;;;5100329;28;20461;-67
2022/11/05 08:05:25;;;;;;;10.97;6.50;;;9.90;99.90;;;;;;5090446;28;20446;-67
2022/11/05 08:07:53;;;;;;;8.23;5.90;;;9.80;99.90;;;;;;5090375;28;20453;-67
2022/11/05 08:10:20;;;;;;;9.63;6.07;;;9.90;99.90;;;;;;5090471;28;20457;-67
2022/11/05 08:12:47;;;;;;;10.03;6.83;;;10.10;99.90;;;;;;5090739;28;20446;-67
2022/11/05 08:15:14;;;;;;;8.27;4.80;;;10.10;99.90;;;;;;5089272;28;20443;-68
2022/11/05 08:17:42;;;;;;;6.57;4.87;;;10.00;99.90;;;;;;5089837;28;20458;-67
2022/11/05 08:20:10;;;;;;;5.23;4.40;;;9.90;99.90;;;;;;5090343;28;20466;-67
2022/11/05 08:22:37;;;;;;;4.70;3.57;;;9.80;99.90;;;;;;5090443;28;20454;-68
2022/11/05 08:25:05;;;;;;;5.53;3.93;;;9.60;99.90;;;;;;5077444;28;20449;-68
2022/11/05 08:27:32;;;;;;;5.37;3.67;;;9.80;99.90;;;;;;5090461;28;20803;-68
2022/11/05 08:29:59;;;;;;;3.37;2.50;;;9.70;99.90;;;;;;5090862;28;20465;-67
2022/11/05 08:32:26;;;;;;;3.00;2.20;;;9.70;99.90;;;;;;5090452;28;20481;-67
2022/11/05 08:34:54;;;;;;;2.83;2.20;;;9.60;99.90;;;;;;5089996;28;21095;-67
2022/11/05 08:37:20;;;;;;;2.27;1.50;;;9.60;99.90;;;;;;5089722;28;20651;-68
2022/11/05 08:39:47;;;;;;;2.40;2.13;;;9.20;99.90;;;;;;5090352;28;20812;-67
2022/11/05 08:42:14;;;;;;;5.03;1.93;;;9.30;99.90;;;;;;5090201;28;20459;-67
2022/11/05 08:44:41;;;;;;;2.40;1.57;;;9.30;99.90;;;;;;5090252;28;20960;-67
2022/11/05 08:47:08;;;;;;;2.70;1.57;;;9.10;99.90;;;;;;5090219;28;20854;-68
2022/11/05 08:49:35;;;;;;;2.77;1.90;;;9.20;99.90;;;;;;5090840;28;21007;-67
2022/11/05 08:52:03;;;;;;;3.10;2.03;;;9.20;99.90;;;;;;5090447;28;20524;-67
2022/11/05 08:54:30;;;;;;;2.40;2.20;;;9.30;99.90;;;;;;5090572;28;20455;-67
2022/11/05 08:56:57;;;;;;;2.70;1.50;;;9.50;99.90;;;;;;5089625;28;20925;-67
2022/11/05 08:59:23;;;;;;;3.27;2.30;;;9.70;99.90;;;;;;5089764;28;20463;-67
2022/11/05 09:01:50;;;;;;;2.07;1.40;;;9.60;99.90;;;;;;5094144;28;20799;-68
2022/11/05 09:04:17;;;;;;;2.77;1.93;;;9.60;99.90;;;;;;5100153;28;20465;-67
2022/11/05 09:06:44;;;;;;;3.63;1.57;;;9.90;99.90;;;;;;5089769;28;20947;-68
2022/11/05 09:09:12;;;;;;;2.30;1.40;;;9.90;99.90;;;;;;5090095;28;20457;-68
2022/11/05 09:11:39;;;;;;;1.77;1.40;;;10.00;99.90;;;;;;5090192;28;20485;-67
2022/11/05 09:14:05;;;;;;;3.30;2.43;;;10.10;99.90;;;;;;5090126;28;20582;-67
2022/11/05 09:16:35;;;;;;;3.07;1.40;;;10.10;99.90;;;;;;5090749;28;20461;-68
2022/11/05 09:19:03;;;;;;;3.40;1.63;;;10.00;99.90;;;;;;5090123;28;20457;-67
2022/11/05 09:21:30;;;;;;;3.70;2.10;;;10.10;99.90;;;;;;5089839;28;20546;-67
2022/11/05 09:23:57;;;;;;;2.63;2.07;;;10.10;99.90;;;;;;5090287;28;20552;-67
2022/11/05 09:26:25;;;;;;;4.00;1.93;;;10.20;99.90;;;;;;5089812;28;20465;-67
2022/11/05 09:28:52;;;;;;;2.83;2.63;;;9.90;99.90;;;;;;5089616;28;20493;-68
2022/11/05 09:31:19;;;;;;;3.30;2.17;;;9.80;99.90;;;;;;5089509;28;20493;-67
2022/11/05 09:33:46;;;;;;;3.80;2.07;;;10.10;99.90;;;;;;5090409;28;20813;-68
2022/11/05 09:36:13;;;;;;;2.80;1.60;;;10.00;99.90;;;;;;5089536;28;20467;-70
2022/11/05 09:38:39;;;;;;;3.60;2.03;;;10.20;99.90;;;;;;5089792;28;20457;-69
2022/11/05 09:41:12;;;;;;;3.33;2.20;;;10.20;99.90;;;;;;5089539;28;20462;-69
2022/11/05 09:43:44;;;;;;;5.80;1.90;;;10.20;99.90;;;;;;5089777;28;20536;-69
2022/11/05 09:46:15;;;;;;;2.57;1.60;;;10.10;99.90;;;;;;5089561;28;20473;-69
2022/11/05 09:48:44;;;;;;;2.17;1.60;;;9.90;99.90;;;;;;5089028;28;20486;-70
2022/11/05 09:51:14;;;;;;;2.00;1.77;;;9.70;99.90;;;;;;5089194;28;20844;-70
2022/11/05 09:53:42;;;;;;;2.00;1.60;;;9.80;99.90;;;;;;5089998;28;20454;-69
2022/11/05 09:56:19;;;;;;;2.10;1.23;;;9.90;99.90;;;;;;5090737;28;20442;-69
2022/11/05 09:58:53;;;;;;;3.27;2.43;;;10.00;99.90;;;;;;5092978;28;20520;-70
2022/11/05 10:01:24;;;;;;;2.27;1.77;;;10.10;99.90;;;;;;5093135;28;20459;-69
2022/11/05 10:03:54;;;;;;;2.77;1.93;;;10.20;99.90;;;;;;5080704;28;20453;-69
2022/11/05 10:06:23;;;;;;;3.10;1.97;;;9.90;99.90;;;;;;5092711;28;20538;-69
2022/11/05 10:08:54;;;;;;;2.40;1.87;;;9.90;99.90;;;;;;5092691;28;20446;-69
2022/11/05 10:11:27;;;;;;;5.57;3.03;;;9.80;99.90;;;;;;5092599;28;20480;-69
2022/11/05 10:13:59;;;;;;;2.60;2.07;;;9.90;99.90;;;;;;5093147;28;20446;-70
2022/11/05 10:16:30;;;;;;;4.10;2.23;;;9.80;99.90;;;;;;5092675;28;20774;-70
2022/11/05 10:19:01;;;;;;;6.03;2.60;;;9.80;99.90;;;;;;5093105;28;20482;-69
2022/11/05 10:21:27;;;;;;;4.63;3.13;;;9.70;99.90;;;;;;5092960;28;20532;-69
2022/11/05 10:23:55;;;;;;;3.00;2.43;;;9.90;99.90;;;;;;5092974;28;20819;-70
2022/11/05 10:26:25;;;;;;;3.47;2.70;;;10.00;99.90;;;;;;5092262;28;20471;-70
2022/11/05 10:28:53;;;;;;;3.83;2.57;;;9.90;99.90;;;;;;5092424;28;20472;-69
2022/11/05 10:31:23;;;;;;;4.93;3.17;;;9.90;99.90;;;;;;5091870;28;20483;-70
2022/11/05 10:33:54;;;;;;;4.70;2.90;;;10.20;99.90;;;;;;5092622;28;20550;-69
2022/11/05 10:36:24;;;;;;;3.93;2.80;;;10.20;99.90;;;;;;5090529;28;20462;-68
2022/11/05 10:38:52;;;;;;;3.73;2.37;;;10.30;99.90;;;;;;5092121;28;20961;-68
2022/11/05 10:41:32;;;;;;;4.47;3.50;;;10.20;99.90;;;;;;5092275;28;20449;-68
2022/11/05 10:44:15;;;;;;;4.70;3.23;;;10.10;99.90;;;;;;5092972;28;20467;-69
2022/11/05 10:46:50;;;;;;;4.33;2.93;;;10.20;99.90;;;;;;5092089;28;20448;-68
2022/11/05 10:49:25;;;;;;;4.17;2.77;;;10.30;99.90;;;;;;5091409;28;20475;-69
2022/11/05 10:51:56;;;;;;;5.77;3.30;;;10.60;99.90;;;;;;5091822;28;20490;-68
2022/11/05 10:54:30;;;;;;;4.50;3.17;;;10.50;1.00;;;;;;5091340;28;20452;-68
2022/11/05 10:56:58;;;;;;;5.07;3.20;;;10.60;10.00;;;;;;5092353;28;20457;-70
2022/11/05 10:59:26;;;;;;;5.73;3.90;;;10.50;1.00;;;;;;5091680;28;20458;-69
2022/11/05 11:02:00;;;;;;;5.37;3.17;;;10.50;1.00;;;;;;5091914;28;20456;-71
2022/11/05 11:04:29;;;;;;;6.43;3.60;;;10.60;10.50;;;;;;5091370;28;20460;-70
2022/11/05 11:06:58;;;;;;;6.73;3.43;;;10.80;29.50;;;;;;5091687;28;20951;-69
2022/11/05 11:09:28;;;;;;;7.67;3.87;;;10.80;1.00;;;;;;5092076;28;20448;-70
2022/11/05 11:12:04;;;;;;;10.40;3.60;;;10.70;1.00;;;;;;5092268;28;20483;-70
2022/11/05 11:14:32;;;;;;;5.07;2.90;;;10.90;1.00;;;;;;5092005;28;21004;-68
2022/11/05 11:17:25;;;;;;;5.13;2.67;;;11.00;1.00;;;;;;5091954;28;20534;-68
2022/11/05 11:20:11;;;;;;;4.27;2.40;;;11.00;1.00;;;;;;5091546;28;20531;-68
2022/11/05 11:22:38;;;;;;;3.57;2.33;;;10.90;1.00;;;;;;5091569;28;20452;-69
2022/11/05 11:25:23;;;;;;;6.47;3.73;;;10.90;1.00;;;;;;5090930;28;20452;-69
2022/11/05 11:27:49;;;;;;;3.30;2.33;;;11.00;1.00;;;;;;5090528;28;20444;-73
2022/11/05 11:30:19;;;;;;;3.63;2.67;;;10.50;1.00;;;;;;5091400;28;20440;-72
2022/11/05 11:32:48;;;;;;;8.87;5.23;;;10.70;1.00;;;;;;5091783;28;20476;-71
2022/11/05 11:35:21;;;;;;;5.50;2.87;;;10.90;1.00;;;;;;5090462;28;20448;-69
2022/11/05 11:37:51;;;;;;;3.20;2.53;;;10.90;1.00;;;;;;5090680;28;20452;-69
2022/11/05 11:40:21;;;;;;;5.20;3.33;;;11.00;1.00;;;;;;5090086;28;20444;-72
2022/11/05 11:42:52;;;;;;;6.50;3.70;;;11.10;1.00;;;;;;5091676;28;20440;-69
2022/11/05 11:45:24;;;;;;;3.60;2.73;;;11.10;1.00;;;;;;5085318;28;20456;-70
2022/11/05 11:47:52;;;;;;;3.60;2.87;;;11.20;1.00;;;;;;5090858;28;21024;-71
2022/11/05 11:50:45;;;;;;;3.63;2.70;;;11.20;99.90;;;;;;5090365;28;20456;-70
2022/11/05 11:53:29;;;;;;;4.20;3.07;;;11.30;1.00;;;;;;5091721;28;20490;-71
2022/11/05 11:56:03;;;;;;;3.43;2.73;;;11.50;1.00;;;;;;5082229;28;20445;-69
2022/11/05 11:58:39;;;;;;;4.40;3.07;;;11.30;99.90;;;;;;5090596;28;20449;-71
2022/11/05 12:01:34;;;;;;;2.93;2.50;;;11.30;99.90;;;;;;5091031;28;20451;-69
2022/11/05 12:04:16;;;;;;;5.57;2.87;;;11.30;99.90;;;;;;5079260;28;20548;-70
2022/11/05 12:06:51;;;;;;;5.17;2.93;;;11.40;1.00;;;;;;5090615;28;20449;-67
2022/11/05 12:09:29;;;;;;;5.80;3.30;;;11.50;99.90;;;;;;5090531;28;20978;-68
2022/11/05 12:12:03;;;;;;;4.53;3.27;;;11.70;81.10;;;;;;5090314;28;20483;-69
2022/11/05 12:14:39;;;;;;;3.13;2.40;;;11.90;1.00;;;;;;5090904;28;20456;-69
2022/11/05 12:17:30;;;;;;;5.30;2.87;;;11.90;1.00;;;;;;5087315;28;20440;-69
2022/11/05 12:20:32;;;;;;;3.17;2.50;;;11.80;1.00;;;;;;5090240;28;20536;-69
2022/11/05 12:23:12;;;;;;;2.67;2.20;;;11.60;1.00;;;;;;5090672;28;20523;-69
2022/11/05 12:25:44;;;;;;;4.30;2.60;;;11.50;46.30;;;;;;5091031;28;20803;-69
2022/11/05 12:28:25;;;;;;;2.80;2.33;;;11.50;29.20;;;;;;5082066;28;20449;-70
2022/11/05 12:30:58;;;;;;;5.83;3.23;;;11.60;1.00;;;;;;5090680;28;20455;-69
2022/11/05 12:33:37;;;;;;;3.27;2.70;;;11.80;37.60;;;;;;5088170;28;20838;-70
2022/11/05 12:36:17;;;;;;;6.87;3.50;;;12.10;99.90;;;;;;5090163;28;20822;-69
2022/11/05 12:39:05;;;;;;;3.40;2.10;;;12.30;99.90;;;;;;5086476;28;20449;-69
2022/11/05 12:41:41;;;;;;;3.30;2.10;;;12.20;1.00;;;;;;5091089;28;20460;-69
2022/11/05 12:44:37;;;;;;;3.17;2.50;;;12.10;99.90;;;;;;5089650;28;20448;-69
2022/11/05 12:47:17;;;;;;;3.93;2.43;;;11.80;1.00;;;;;;5085673;28;20440;-69
2022/11/05 12:50:01;;;;;;;3.83;2.70;;;11.40;99.90;;;;;;5090186;28;20478;-69
2022/11/05 12:52:46;;;;;;;4.20;2.50;;;11.50;99.90;;;;;;5077624;28;20850;-69
2022/11/05 12:55:18;;;;;;;3.50;2.90;;;11.70;1.00;;;;;;5089284;28;20455;-69
2022/11/05 12:57:49;;;;;;;4.57;2.40;;;11.70;20.60;;;;;;5089799;28;20449;-69
2022/11/05 13:00:19;;;;;;;3.70;2.80;;;11.60;99.90;;;;;;5087505;28;20480;-69
2022/11/05 13:02:51;;;;;;;4.10;3.30;;;11.50;99.90;;;;;;5089868;28;20971;-69
2022/11/05 13:05:23;;;;;;;5.47;2.47;;;11.40;1.00;;;;;;5089028;28;20464;-68
2022/11/05 13:07:56;;;;;;;4.60;3.20;;;11.40;99.90;;;;;;5089509;28;20947;-70
2022/11/05 13:10:29;;;;;;;4.87;3.17;;;11.30;1.00;;;;;;5083677;28;20912;-68
2022/11/05 13:13:02;;;;;;;3.10;2.77;;;11.20;87.50;;;;;;5089827;28;20483;-68
2022/11/05 13:15:34;;;;;;;4.57;2.80;;;11.20;99.90;;;;;;5090477;28;20809;-68
2022/11/05 13:18:06;;;;;;;5.40;2.83;;;11.20;99.90;;;;;;5089678;28;20981;-68
2022/11/05 13:20:37;;;;;;;5.93;3.63;;;11.20;85.40;;;;;;5090333;28;20855;-68
2022/11/05 13:23:16;;;;;;;4.47;3.10;;;11.20;1.00;;;;;;5089030;28;20456;-68
2022/11/05 13:25:49;;;;;;;5.20;2.93;;;11.20;99.90;;;;;;5089864;28;20832;-68
2022/11/05 13:28:25;;;;;;;8.40;5.23;;;11.30;99.90;;;;;;5089098;28;20447;-68
2022/11/05 13:30:54;;;;;;;5.37;2.80;;;11.30;1.00;;;;;;5087921;28;20452;-68
2022/11/05 13:33:24;;;;;;;4.30;2.90;;;11.20;1.00;;;;;;5092734;28;20857;-67
2022/11/05 13:38:58;;;;;;;6.17;3.40;;;11.10;99.90;;;;;;5092802;28;20534;-67
2022/11/05 13:38:58;;;;;;;5.37;3.20;;;11.10;99.90;;;;;;5093290;28;20444;-68
2022/11/05 13:41:33;;;;;;;3.10;2.13;;;11.20;99.90;;;;;;5093215;28;20456;-68
2022/11/05 13:44:23;;;;;;;2.50;2.13;;;11.00;99.90;;;;;;5093419;28;20943;-68
2022/11/05 13:47:13;;;;;;;5.83;2.60;;;11.00;1.00;;;;;;5093088;28;20437;-68
2022/11/05 13:50:03;;;;;;;4.57;2.73;;;11.10;99.90;;;;;;5094039;28;20475;-69
2022/11/05 13:52:48;;;;;;;4.60;2.70;;;11.00;99.90;;;;;;5093103;28;20480;-68